Terminal Aerodrome Forecast
Issued by NWS

Home | Current Version | Previous Version | Text Only | Print | Product List | Glossary On
Versions: 1 2 3 4 5 6 7 8 9 10 11 12 13 14 15 16 17 18
000
FTUS46 KSGX 261200 AAA
TAFCRQ
TAF AMD
KCRQ 261254Z 2613/2712 VRB03KT 2SM BR OVC003
      TEMPO 2613/2615 1SM BR OVC002
     FM261600 VRB04KT P6SM SCT120
     FM261900 24007KT P6SM SCT120
     FM270400 VRB03KT P6SM OVC008
     FM270800 VRB03KT 4SM BR OVC005=

USA.gov is the U.S. government's official web portal to all federal, state and local government web resources and services.